Time;durP1;ratioP1;P1;durP2;ratioP2;P2;SDS_P1;SDS_P2;PMS_P1;PMS_P2;Temp;Humidity;BMP_temperature;BMP_pressure;BME280_temperature;BME280_humidity;BME280_pressure;Samples;Min_cycle;Max_cycle;Signal;HPM_P1;HPM_P2
2021/08/03 00:00:52;;;;;;;5.90;5.30;;;16.30;92.50;;;;;;5020540;28;20763;-83
2021/08/03 00:03:30;;;;;;;6.13;5.53;;;16.40;92.30;;;;;;5022725;28;20684;-79
2021/08/03 00:06:01;;;;;;;8.40;6.17;;;16.30;92.40;;;;;;5024155;28;20198;-83
2021/08/03 00:08:35;;;;;;;5.73;5.23;;;16.40;92.30;;;;;;5028952;28;20198;-81
2021/08/03 00:11:04;;;;;;;7.97;5.50;;;16.40;92.20;;;;;;5032753;28;20838;-80
2021/08/03 00:13:36;;;;;;;5.73;5.23;;;16.40;92.10;;;;;;5018837;28;20731;-83
2021/08/03 00:16:08;;;;;;;8.23;5.97;;;16.40;92.00;;;;;;5017445;28;20206;-81
2021/08/03 00:18:38;;;;;;;6.47;5.83;;;16.30;92.10;;;;;;5016794;28;20221;-83
2021/08/03 00:21:08;;;;;;;6.13;5.43;;;16.40;92.30;;;;;;5024940;28;20206;-82
2021/08/03 00:23:38;;;;;;;7.23;5.80;;;16.40;92.00;;;;;;5029499;28;20966;-83
2021/08/03 00:26:10;;;;;;;6.70;6.00;;;16.30;92.30;;;;;;5017579;28;20993;-80
2021/08/03 00:28:45;;;;;;;10.00;6.30;;;16.20;92.30;;;;;;5017847;28;21062;-82
2021/08/03 00:31:17;;;;;;;6.13;5.53;;;16.20;92.40;;;;;;5020803;28;20213;-81
2021/08/03 00:33:47;;;;;;;6.37;5.77;;;16.20;92.60;;;;;;5020061;28;20627;-81
2021/08/03 00:36:17;;;;;;;6.30;5.70;;;16.20;92.70;;;;;;5015155;28;20202;-82
2021/08/03 00:38:45;;;;;;;7.03;5.93;;;16.20;92.60;;;;;;5021888;28;20203;-82
2021/08/03 00:41:18;;;;;;;7.83;6.40;;;16.20;92.60;;;;;;5019892;28;20277;-81
2021/08/03 00:43:49;;;;;;;6.57;5.87;;;16.10;92.80;;;;;;5019911;28;20684;-82
2021/08/03 00:46:17;;;;;;;6.40;5.80;;;16.20;92.90;;;;;;5029733;28;20661;-81
2021/08/03 00:48:46;;;;;;;6.57;5.80;;;16.10;92.40;;;;;;5027122;28;20201;-81
2021/08/03 00:51:15;;;;;;;6.40;5.80;;;16.10;92.50;;;;;;5032369;28;20206;-81
2021/08/03 00:53:44;;;;;;;6.37;5.77;;;16.20;92.60;;;;;;5028490;28;20724;-81
2021/08/03 00:56:13;;;;;;;6.27;5.77;;;16.10;92.60;;;;;;5028206;28;20195;-81
2021/08/03 00:58:42;;;;;;;6.13;5.53;;;16.10;92.50;;;;;;5021742;28;20202;-82
2021/08/03 01:01:12;;;;;;;6.90;5.67;;;16.10;92.40;;;;;;5018796;28;21261;-82
2021/08/03 01:03:41;;;;;;;6.27;5.67;;;16.10;92.60;;;;;;5028715;28;20673;-82
2021/08/03 01:06:21;;;;;;;6.43;5.80;;;16.10;92.30;;;;;;5011791;28;20198;-82
2021/08/03 01:08:57;;;;;;;6.47;5.87;;;16.00;92.30;;;;;;5028350;28;20297;-81
2021/08/03 01:11:37;;;;;;;6.20;5.60;;;16.10;92.50;;;;;;5038662;28;20578;-80
2021/08/03 01:14:11;;;;;;;7.13;6.13;;;16.00;92.30;;;;;;5029454;28;20198;-82
2021/08/03 01:16:51;;;;;;;11.20;5.90;;;16.00;92.50;;;;;;5034732;28;20202;-81
2021/08/03 01:19:23;;;;;;;6.40;5.90;;;15.90;92.80;;;;;;5043844;28;20278;-84
2021/08/03 01:22:04;;;;;;;8.53;6.53;;;15.80;92.90;;;;;;5039462;28;20186;-81
2021/08/03 01:25:01;;;;;;;7.47;6.60;;;15.80;92.80;;;;;;5046099;28;20214;-83
2021/08/03 01:27:43;;;;;;;7.67;6.20;;;15.70;92.90;;;;;;5019302;28;20222;-80
2021/08/03 01:30:14;;;;;;;6.97;6.27;;;15.60;93.50;;;;;;5020758;28;20264;-82
2021/08/03 01:32:45;;;;;;;7.10;5.73;;;15.50;94.20;;;;;;5020806;28;20238;-82
2021/08/03 01:35:14;;;;;;;9.13;6.93;;;15.40;94.30;;;;;;5014521;28;20203;-81
2021/08/03 01:37:47;;;;;;;7.20;6.40;;;15.40;94.30;;;;;;5018620;28;20203;-82
2021/08/03 01:40:16;;;;;;;8.00;7.20;;;15.40;94.70;;;;;;5016116;28;20722;-81
2021/08/03 01:42:46;;;;;;;7.27;6.00;;;15.30;94.60;;;;;;5017638;28;20213;-80
2021/08/03 01:45:19;;;;;;;6.60;6.00;;;15.30;94.60;;;;;;5019838;28;20802;-82
2021/08/03 01:47:47;;;;;;;7.07;6.10;;;15.30;94.60;;;;;;5018518;28;20211;-80
2021/08/03 01:50:20;;;;;;;6.97;6.27;;;15.20;95.00;;;;;;5017409;28;20651;-82
2021/08/03 01:52:49;;;;;;;7.03;5.90;;;15.20;94.40;;;;;;5016607;28;20918;-82
2021/08/03 01:55:21;;;;;;;7.43;6.37;;;15.20;94.80;;;;;;5019332;28;20248;-82
2021/08/03 01:57:50;;;;;;;10.50;6.33;;;15.20;94.50;;;;;;5013124;28;20191;-85
2021/08/03 02:00:21;;;;;;;8.10;6.43;;;15.10;94.40;;;;;;5019538;28;20222;-82
2021/08/03 02:02:51;;;;;;;6.70;6.00;;;15.10;94.20;;;;;;5019522;28;20213;-81
2021/08/03 02:05:21;;;;;;;11.50;6.67;;;15.10;94.00;;;;;;5038656;28;20226;-82
2021/08/03 02:07:50;;;;;;;7.70;6.00;;;15.10;94.50;;;;;;5033836;28;20195;-81
2021/08/03 02:10:20;;;;;;;6.43;5.83;;;15.00;94.30;;;;;;5041122;28;20187;-82
2021/08/03 02:12:50;;;;;;;7.10;6.30;;;15.00;94.10;;;;;;5044685;28;20233;-81
2021/08/03 02:15:23;;;;;;;6.50;5.90;;;14.90;94.80;;;;;;5042892;28;20195;-83
2021/08/03 02:17:52;;;;;;;7.37;6.27;;;14.80;95.20;;;;;;5040896;28;20245;-81
2021/08/03 02:20:22;;;;;;;6.87;5.90;;;14.70;96.00;;;;;;5033727;28;20207;-82
2021/08/03 02:22:51;;;;;;;8.13;6.37;;;14.60;96.50;;;;;;5029172;28;20209;-82
2021/08/03 02:25:20;;;;;;;6.47;5.87;;;14.50;97.30;;;;;;5036562;28;20202;-80
2021/08/03 02:27:49;;;;;;;6.77;6.07;;;14.40;97.30;;;;;;5043982;28;20199;-81
2021/08/03 02:30:17;;;;;;;10.63;6.23;;;14.40;98.10;;;;;;5031388;28;20206;-82
2021/08/03 02:32:54;;;;;;;7.47;6.67;;;14.30;98.10;;;;;;5021344;28;20245;-82
2021/08/03 02:35:29;;;;;;;7.00;6.30;;;14.10;99.10;;;;;;5023100;28;20198;-80
2021/08/03 02:38:01;;;;;;;8.60;6.43;;;14.10;99.70;;;;;;5023179;28;20191;-80
2021/08/03 02:40:31;;;;;;;7.20;6.07;;;14.10;99.90;;;;;;5029528;28;20289;-80
2021/08/03 02:43:01;;;;;;;7.40;6.60;;;14.20;98.30;;;;;;5022928;28;20215;-82
2021/08/03 02:45:31;;;;;;;6.53;5.80;;;14.30;97.80;;;;;;5021445;28;20202;-83
2021/08/03 02:48:11;;;;;;;8.07;6.63;;;14.40;97.10;;;;;;5023943;28;20205;-82
2021/08/03 02:50:43;;;;;;;6.73;5.90;;;14.40;96.30;;;;;;5018834;28;20245;-80
2021/08/03 02:53:18;;;;;;;7.90;6.87;;;14.50;96.00;;;;;;5019984;28;20230;-81
2021/08/03 02:55:50;;;;;;;6.27;5.67;;;14.50;95.50;;;;;;5018947;28;20222;-83
2021/08/03 02:58:25;;;;;;;6.30;5.70;;;14.40;95.80;;;;;;5025445;28;20203;-80
2021/08/03 03:00:56;;;;;;;9.10;6.63;;;14.30;96.20;;;;;;5027030;28;20206;-81
2021/08/03 03:03:27;;;;;;;8.47;6.17;;;14.30;96.30;;;;;;5043421;28;20202;-81
2021/08/03 03:06:00;;;;;;;8.50;5.97;;;14.30;96.30;;;;;;5035696;28;20206;-79
2021/08/03 03:08:30;;;;;;;6.73;6.00;;;14.30;97.50;;;;;;5018957;28;20277;-81
2021/08/03 03:11:02;;;;;;;6.60;5.90;;;14.30;96.30;;;;;;5019751;28;20808;-82
2021/08/03 03:13:35;;;;;;;9.50;5.83;;;14.40;95.80;;;;;;5019859;28;20230;-80
2021/08/03 03:16:07;;;;;;;9.23;5.83;;;14.40;95.40;;;;;;5025920;28;20421;-81
2021/08/03 03:18:39;;;;;;;7.77;6.30;;;14.50;94.60;;;;;;5028687;28;20704;-79
2021/08/03 03:21:09;;;;;;;9.90;6.43;;;14.60;93.90;;;;;;5031231;28;20214;-81
2021/08/03 03:23:37;;;;;;;7.47;5.37;;;14.70;93.70;;;;;;5026271;28;20199;-79
2021/08/03 03:26:07;;;;;;;6.53;5.47;;;14.80;93.00;;;;;;5023359;28;20207;-83
2021/08/03 03:28:39;;;;;;;7.83;5.77;;;14.80;92.50;;;;;;5018270;28;20226;-82
2021/08/03 03:31:09;;;;;;;5.70;5.10;;;14.80;92.50;;;;;;5024705;28;20296;-82
2021/08/03 03:33:42;;;;;;;6.70;5.43;;;14.80;92.60;;;;;;5040241;28;20214;-82
2021/08/03 03:36:13;;;;;;;7.03;5.60;;;14.80;92.50;;;;;;5025934;28;21043;-82
2021/08/03 03:38:44;;;;;;;8.20;6.33;;;14.70;93.10;;;;;;5019335;28;20198;-80
2021/08/03 03:41:13;;;;;;;7.83;6.27;;;14.60;93.90;;;;;;5012159;28;20285;-81
2021/08/03 03:43:42;;;;;;;6.43;5.77;;;14.60;94.20;;;;;;5020700;28;21327;-81
2021/08/03 03:46:15;;;;;;;7.20;5.90;;;14.60;93.80;;;;;;5020452;28;20203;-81
2021/08/03 03:48:52;;;;;;;7.93;5.50;;;14.60;93.90;;;;;;5023670;28;20988;-81
2021/08/03 03:51:28;;;;;;;6.27;5.67;;;14.60;93.20;;;;;;5014284;28;20466;-82
2021/08/03 03:54:00;;;;;;;8.07;5.30;;;14.70;92.80;;;;;;5017967;28;20651;-81
2021/08/03 03:56:32;;;;;;;5.70;5.20;;;14.70;92.50;;;;;;5017110;28;20202;-84
2021/08/03 03:59:03;;;;;;;6.90;5.80;;;14.70;92.40;;;;;;5015639;28;20210;-82
2021/08/03 04:01:33;;;;;;;5.90;5.33;;;14.70;92.60;;;;;;5022332;28;20659;-81
2021/08/03 04:04:07;;;;;;;6.27;5.47;;;14.70;92.50;;;;;;5019220;28;20293;-81
2021/08/03 04:06:36;;;;;;;6.17;5.53;;;14.70;92.20;;;;;;5018215;28;20436;-81
2021/08/03 04:09:05;;;;;;;6.03;5.17;;;14.80;92.10;;;;;;5029379;28;21299;-80
2021/08/03 04:11:34;;;;;;;6.67;4.93;;;14.90;91.60;;;;;;5027536;28;20754;-82
2021/08/03 04:14:03;;;;;;;7.80;4.80;;;15.00;91.10;;;;;;5020744;28;20242;-81
2021/08/03 04:16:33;;;;;;;7.23;5.23;;;15.00;91.00;;;;;;5021566;28;20268;-82
2021/08/03 04:19:03;;;;;;;5.33;4.83;;;15.10;90.80;;;;;;5025298;28;20191;-84
2021/08/03 04:21:33;;;;;;;9.30;4.83;;;15.10;90.60;;;;;;5016724;28;20207;-85
2021/08/03 04:24:02;;;;;;;6.40;5.00;;;15.10;90.60;;;;;;5017431;28;20509;-84
2021/08/03 04:26:34;;;;;;;5.83;4.83;;;15.20;90.50;;;;;;5010126;28;20202;-84
2021/08/03 04:29:04;;;;;;;5.13;4.13;;;15.20;90.50;;;;;;5014371;28;20761;-84
2021/08/03 04:31:34;;;;;;;5.43;4.93;;;15.30;90.30;;;;;;5015998;28;20199;-84
2021/08/03 04:34:05;;;;;;;5.33;4.43;;;15.30;90.50;;;;;;5016269;28;20308;-84
2021/08/03 04:36:35;;;;;;;5.53;4.67;;;15.30;90.20;;;;;;5016761;28;20234;-85
2021/08/03 04:39:10;;;;;;;6.07;4.70;;;15.40;90.30;;;;;;5008417;28;20199;-82
2021/08/03 04:41:39;;;;;;;6.77;4.83;;;15.40;90.20;;;;;;5009388;28;21128;-86
2021/08/03 04:44:08;;;;;;;8.27;4.67;;;15.50;90.00;;;;;;5010868;28;21122;-86
2021/08/03 04:46:37;;;;;;;5.83;4.30;;;15.60;89.00;;;;;;5017119;28;20677;-84
2021/08/03 04:49:07;;;;;;;5.23;4.13;;;15.60;88.70;;;;;;5013907;28;20210;-83
2021/08/03 04:51:37;;;;;;;6.03;4.70;;;15.70;88.60;;;;;;5022267;28;21020;-84
2021/08/03 04:54:07;;;;;;;6.27;4.80;;;15.80;88.50;;;;;;5011230;28;20303;-84
2021/08/03 04:56:36;;;;;;;5.93;4.57;;;15.90;88.20;;;;;;4996170;28;20211;-85
2021/08/03 04:59:06;;;;;;;4.80;4.23;;;16.10;88.20;;;;;;5011118;28;20715;-84
2021/08/03 05:01:34;;;;;;;4.90;4.27;;;16.30;87.60;;;;;;4999110;28;20206;-87
2021/08/03 05:04:05;;;;;;;5.30;4.77;;;16.40;87.20;;;;;;5000290;28;20221;-82
2021/08/03 05:06:37;;;;;;;7.43;4.37;;;16.50;87.10;;;;;;5008860;28;20876;-85
2021/08/03 05:09:06;;;;;;;5.80;4.03;;;16.60;86.60;;;;;;5012038;28;20211;-85
2021/08/03 05:11:35;;;;;;;4.80;3.80;;;16.70;86.60;;;;;;5013301;28;20600;-83
2021/08/03 05:14:04;;;;;;;5.67;3.67;;;16.90;86.40;;;;;;5012042;28;20837;-86
2021/08/03 05:16:33;;;;;;;7.73;3.93;;;17.00;86.00;;;;;;5007275;28;21109;-84
2021/08/03 05:19:02;;;;;;;6.47;4.03;;;17.10;85.90;;;;;;5012665;28;20211;-84
2021/08/03 05:21:31;;;;;;;4.97;3.87;;;17.20;85.70;;;;;;5017561;28;20566;-84
2021/08/03 05:24:01;;;;;;;6.67;3.93;;;17.20;85.80;;;;;;5022345;28;20225;-82
2021/08/03 05:26:33;;;;;;;5.40;4.00;;;17.30;85.70;;;;;;5026443;28;20199;-83
2021/08/03 05:29:02;;;;;;;5.77;3.70;;;17.40;86.00;;;;;;5034035;28;20199;-82
2021/08/03 05:31:31;;;;;;;4.33;3.27;;;17.60;85.50;;;;;;5026970;28;20237;-82
2021/08/03 05:34:03;;;;;;;4.70;3.50;;;17.70;85.00;;;;;;5017149;28;20199;-83
2021/08/03 05:36:33;;;;;;;5.33;3.20;;;17.80;84.60;;;;;;5020585;28;20211;-83
2021/08/03 05:39:03;;;;;;;4.87;3.20;;;17.80;84.50;;;;;;5022624;28;20755;-84
2021/08/03 05:41:34;;;;;;;6.93;3.20;;;17.90;84.40;;;;;;5021900;28;20207;-83
2021/08/03 05:44:03;;;;;;;6.57;2.93;;;18.00;84.50;;;;;;5016754;28;20575;-85
2021/08/03 05:46:32;;;;;;;3.43;3.00;;;18.10;84.10;;;;;;5015253;28;20202;-84
2021/08/03 05:49:02;;;;;;;2.97;2.77;;;18.10;83.80;;;;;;5025844;28;20192;-81
2021/08/03 05:51:31;;;;;;;6.23;2.80;;;18.20;84.00;;;;;;5025963;28;20188;-82
2021/08/03 05:54:04;;;;;;;4.17;2.80;;;18.30;84.10;;;;;;5022969;28;20215;-84
2021/08/03 05:56:36;;;;;;;5.43;3.10;;;18.40;83.90;;;;;;5020727;28;20206;-82
2021/08/03 05:59:05;;;;;;;3.03;2.50;;;18.50;83.20;;;;;;5011743;28;21049;-82
2021/08/03 06:01:34;;;;;;;4.50;2.50;;;18.50;83.20;;;;;;5013507;28;20214;-83
2021/08/03 06:04:04;;;;;;;4.27;2.60;;;18.60;83.50;;;;;;5005278;28;20366;-83
2021/08/03 06:06:39;;;;;;;4.33;2.30;;;18.70;83.50;;;;;;5001341;28;21093;-82
2021/08/03 06:09:13;;;;;;;4.63;2.70;;;18.90;83.50;;;;;;5008454;28;20208;-87
2021/08/03 06:11:47;;;;;;;4.03;2.50;;;19.00;82.90;;;;;;5001494;28;20728;-86
2021/08/03 06:14:20;;;;;;;5.50;2.60;;;19.10;83.00;;;;;;5006326;28;20207;-84
2021/08/03 06:16:59;;;;;;;3.13;2.57;;;19.10;82.70;;;;;;5010054;28;20207;-83
2021/08/03 06:19:40;;;;;;;3.77;2.37;;;19.20;82.80;;;;;;5006466;28;20209;-85
2021/08/03 06:22:13;;;;;;;3.23;2.37;;;19.30;82.50;;;;;;5005950;28;20199;-82
2021/08/03 06:24:47;;;;;;;3.63;2.50;;;19.40;82.70;;;;;;5013009;28;20203;-83
2021/08/03 06:27:19;;;;;;;4.80;2.40;;;19.40;82.10;;;;;;5003146;28;20203;-85
2021/08/03 06:29:50;;;;;;;4.50;2.40;;;19.50;82.80;;;;;;5005253;28;20709;-82
2021/08/03 06:32:22;;;;;;;3.60;2.60;;;19.60;82.40;;;;;;5000639;28;20322;-83
2021/08/03 06:34:56;;;;;;;4.40;2.57;;;19.70;82.30;;;;;;5010250;28;20234;-85
2021/08/03 06:37:29;;;;;;;6.57;2.33;;;19.70;82.10;;;;;;5011264;28;20289;-82
2021/08/03 06:40:04;;;;;;;3.83;2.40;;;19.80;82.40;;;;;;5011041;28;20207;-83
2021/08/03 06:42:53;;;;;;;5.17;2.50;;;19.90;82.10;;;;;;5009068;28;20540;-83
2021/08/03 06:45:34;;;;;;;4.27;2.40;;;20.10;81.80;;;;;;5013867;28;20290;-82
2021/08/03 06:48:06;;;;;;;3.13;2.23;;;20.10;81.40;;;;;;5015409;28;20195;-84
2021/08/03 06:51:08;;;;;;;4.07;2.27;;;20.00;81.30;;;;;;5015145;28;20759;-84
2021/08/03 06:54:03;;;;;;;2.40;2.10;;;20.00;81.30;;;;;;5019808;28;20488;-83
2021/08/03 06:56:50;;;;;;;3.43;2.40;;;20.00;81.20;;;;;;5012660;28;20704;-84
2021/08/03 06:59:28;;;;;;;3.97;2.10;;;20.00;81.10;;;;;;5012705;28;20771;-83
2021/08/03 07:02:09;;;;;;;2.43;1.90;;;20.10;81.70;;;;;;5024035;28;20182;-84
2021/08/03 07:04:47;;;;;;;5.23;2.07;;;20.20;81.40;;;;;;5023139;28;20501;-83
2021/08/03 07:07:19;;;;;;;2.93;1.77;;;20.50;81.20;;;;;;5024137;28;20466;-84
2021/08/03 07:09:50;;;;;;;2.97;2.00;;;20.50;80.30;;;;;;5005354;28;20226;-84
2021/08/03 07:12:23;;;;;;;2.00;1.80;;;20.70;80.90;;;;;;5008935;28;20203;-83
2021/08/03 07:14:53;;;;;;;2.53;2.10;;;20.80;79.90;;;;;;5001947;28;20290;-82
2021/08/03 07:17:25;;;;;;;3.67;2.00;;;20.80;80.00;;;;;;4995898;28;20222;-83
2021/08/03 07:19:56;;;;;;;2.93;2.00;;;20.80;79.90;;;;;;4979425;28;20235;-84
2021/08/03 07:22:27;;;;;;;3.70;2.20;;;20.90;80.30;;;;;;4973658;28;20219;-84
2021/08/03 07:25:06;;;;;;;2.70;2.30;;;21.00;79.90;;;;;;4983989;28;20222;-84
2021/08/03 07:27:37;;;;;;;3.37;2.13;;;21.10;79.90;;;;;;4974785;28;20832;-83
2021/08/03 07:30:13;;;;;;;3.90;2.10;;;21.20;79.80;;;;;;4984771;28;20558;-83
2021/08/03 07:32:43;;;;;;;2.47;1.80;;;21.20;79.00;;;;;;4982187;28;20623;-83
2021/08/03 07:35:13;;;;;;;2.53;1.90;;;21.10;78.90;;;;;;4980525;28;20857;-82
2021/08/03 07:37:43;;;;;;;2.87;1.90;;;21.10;78.80;;;;;;4979773;28;20207;-82
2021/08/03 07:43:01;;;;;;;3.20;1.90;;;21.10;78.60;;;;;;4980140;28;21200;-82
2021/08/03 07:45:32;;;;;;;5.47;1.90;;;21.20;78.50;;;;;;4980284;28;20287;-84
2021/08/03 07:48:04;;;;;;;2.30;1.87;;;21.30;78.10;;;;;;4977539;28;20315;-83
2021/08/03 07:50:33;;;;;;;4.97;2.07;;;21.30;78.10;;;;;;4980672;28;21149;-82
2021/08/03 07:53:08;;;;;;;4.63;2.00;;;21.30;78.00;;;;;;4985485;28;20213;-83
2021/08/03 07:55:49;;;;;;;2.00;1.90;;;21.20;78.30;;;;;;4990449;28;20913;-84
2021/08/03 07:58:23;;;;;;;1.97;1.50;;;21.30;78.10;;;;;;4994611;28;20203;-82
2021/08/03 08:00:54;;;;;;;3.07;1.80;;;21.50;77.90;;;;;;4975725;28;20204;-83
2021/08/03 08:03:23;;;;;;;4.37;1.90;;;21.60;77.30;;;;;;4987381;28;20232;-81
2021/08/03 08:05:52;;;;;;;4.68;2.00;;;21.50;76.80;;;;;;4999664;28;20200;-83
2021/08/03 08:08:21;;;;;;;5.70;1.90;;;21.50;76.80;;;;;;5000876;28;20253;-82
2021/08/03 08:11:22;;;;;;;1.83;1.63;;;21.50;77.00;;;;;;5011461;28;20221;-82
2021/08/03 08:13:53;;;;;;;2.50;2.03;;;21.70;76.70;;;;;;5007366;28;20225;-82
2021/08/03 08:16:23;;;;;;;2.47;1.60;;;21.80;76.30;;;;;;5007841;28;20586;-82
2021/08/03 08:18:56;;;;;;;3.10;2.10;;;21.90;75.90;;;;;;5009857;28;20219;-81
2021/08/03 08:21:32;;;;;;;2.67;1.80;;;21.90;76.10;;;;;;5015478;28;20191;-85
2021/08/03 08:24:02;;;;;;;3.80;1.83;;;21.90;76.20;;;;;;5019407;28;20600;-83
2021/08/03 08:26:32;;;;;;;3.67;1.80;;;22.00;75.70;;;;;;5012646;28;20198;-82
2021/08/03 08:29:03;;;;;;;2.47;1.80;;;22.10;75.80;;;;;;5017065;28;20558;-82
2021/08/03 08:31:43;;;;;;;1.85;1.60;;;22.10;75.60;;;;;;5014162;28;20195;-84
2021/08/03 08:34:18;;;;;;;2.83;1.70;;;21.90;75.30;;;;;;5013116;28;20347;-84
2021/08/03 08:36:52;;;;;;;3.58;1.90;;;22.00;75.40;;;;;;5014178;28;20218;-85
2021/08/03 08:39:24;;;;;;;3.05;1.80;;;22.30;75.00;;;;;;5009713;28;20224;-83
2021/08/03 08:43:04;;;;;;;2.42;1.90;;;22.40;74.80;;;;;;5005245;28;20204;-85
2021/08/03 09:04:50;;;;;;;7.50;1.70;;;21.60;73.00;;;;;;4800451;29;20496;-84
2021/08/03 09:29:47;;;;;;;3.70;1.92;;;22.70;71.30;;;;;;4620379;30;20227;-82
2021/08/03 09:59:10;;;;;;;2.60;1.80;;;22.90;71.10;;;;;;4626492;30;20306;-84
2021/08/03 10:29:11;;;;;;;2.17;1.40;;;23.60;68.00;;;;;;4596668;30;20902;-84
2021/08/03 10:48:58;;;;;;;2.58;1.85;;;23.50;67.40;;;;;;4636772;30;20225;-86
2021/08/03 10:52:04;;;;;;;2.20;1.90;;;23.40;67.10;;;;;;4712124;30;20218;-87
2021/08/03 10:54:54;;;;;;;4.15;2.03;;;23.30;67.00;;;;;;4709146;30;20324;-86
2021/08/03 10:57:26;;;;;;;2.13;1.90;;;23.10;66.80;;;;;;4749959;29;20384;-86
2021/08/03 11:00:04;;;;;;;2.55;2.03;;;23.00;67.20;;;;;;4756342;30;20308;-83
2021/08/03 11:02:57;;;;;;;4.22;1.83;;;23.00;67.40;;;;;;4763846;30;20215;-85
2021/08/03 11:05:30;;;;;;;3.67;2.00;;;23.10;67.50;;;;;;4785996;29;20298;-85
2021/08/03 11:08:34;;;;;;;2.17;1.77;;;23.20;67.20;;;;;;4791487;29;20206;-85
2021/08/03 11:11:08;;;;;;;4.07;2.03;;;23.30;66.40;;;;;;4793132;29;20257;-85
2021/08/03 11:13:39;;;;;;;2.00;1.80;;;23.40;67.10;;;;;;4853392;29;20510;-85
2021/08/03 11:16:44;;;;;;;2.38;1.77;;;23.40;66.90;;;;;;4847570;29;20305;-86
2021/08/03 11:19:35;;;;;;;2.17;1.60;;;23.40;67.20;;;;;;4851526;29;20797;-82
2021/08/03 11:25:21;;;;;;;3.90;2.72;;;23.30;68.40;;;;;;4859174;29;20268;-83
2021/08/03 11:30:55;;;;;;;1.98;1.77;;;23.50;68.20;;;;;;4888938;29;20202;-82
2021/08/03 11:33:49;;;;;;;2.22;2.03;;;23.40;66.90;;;;;;4913699;28;20215;-83
2021/08/03 11:36:31;;;;;;;1.92;1.83;;;23.20;67.10;;;;;;4865127;29;20524;-83
2021/08/03 11:39:02;;;;;;;2.17;1.98;;;22.90;67.90;;;;;;4911164;28;20212;-84
2021/08/03 11:41:46;;;;;;;3.47;1.98;;;23.00;68.30;;;;;;4935761;28;20217;-84
2021/08/03 11:44:16;;;;;;;2.88;1.90;;;23.00;68.30;;;;;;4936916;28;21188;-83
2021/08/03 11:46:45;;;;;;;3.15;1.90;;;22.90;68.60;;;;;;4934705;28;20202;-86
2021/08/03 11:49:14;;;;;;;2.00;1.80;;;23.00;68.70;;;;;;4946742;28;20543;-83
2021/08/03 11:51:47;;;;;;;1.95;1.67;;;23.10;68.40;;;;;;4935511;28;20300;-85
2021/08/03 11:54:19;;;;;;;1.98;1.63;;;23.20;67.60;;;;;;4942355;28;20264;-86
2021/08/03 11:56:48;;;;;;;2.03;1.67;;;23.20;67.70;;;;;;4939180;28;20751;-85
2021/08/03 11:59:17;;;;;;;1.98;1.73;;;23.20;66.60;;;;;;4945784;28;20212;-83
2021/08/03 12:01:47;;;;;;;3.97;1.95;;;23.30;66.60;;;;;;4945885;28;20219;-86
2021/08/03 12:04:21;;;;;;;3.47;1.92;;;23.40;67.80;;;;;;4943220;28;20205;-84
2021/08/03 12:06:52;;;;;;;2.03;1.90;;;23.40;67.20;;;;;;4944622;28;20228;-83
2021/08/03 12:09:38;;;;;;;3.55;2.08;;;23.40;67.10;;;;;;4947189;28;20654;-86
2021/08/03 12:12:15;;;;;;;4.90;2.13;;;23.60;68.40;;;;;;4947990;28;20527;-83
2021/08/03 12:14:44;;;;;;;3.83;2.10;;;23.80;68.10;;;;;;4959878;28;21162;-82
2021/08/03 12:17:26;;;;;;;2.72;1.75;;;23.90;68.30;;;;;;4977464;28;21507;-84
2021/08/03 12:20:02;;;;;;;3.22;2.10;;;24.00;67.30;;;;;;4980306;28;20211;-81
2021/08/03 12:22:32;;;;;;;2.70;2.13;;;23.80;67.30;;;;;;4978180;28;20207;-86
2021/08/03 12:25:06;;;;;;;3.25;2.30;;;23.50;67.70;;;;;;4979729;28;20210;-82
2021/08/03 12:27:39;;;;;;;2.15;1.95;;;23.50;68.30;;;;;;4974792;28;21103;-85
2021/08/03 12:30:29;;;;;;;2.33;2.08;;;23.70;67.40;;;;;;4981516;28;20238;-82
2021/08/03 12:32:57;;;;;;;2.72;1.75;;;23.80;66.50;;;;;;4980006;28;20283;-84
2021/08/03 12:35:27;;;;;;;6.03;2.30;;;23.70;66.70;;;;;;4983588;28;20207;-85
2021/08/03 12:38:17;;;;;;;3.28;1.95;;;23.70;66.90;;;;;;4978465;28;20230;-86
2021/08/03 12:40:48;;;;;;;2.38;2.17;;;23.50;66.90;;;;;;4968868;28;20235;-84
2021/08/03 12:43:22;;;;;;;2.75;2.13;;;23.70;67.40;;;;;;4985778;28;20207;-84
2021/08/03 12:45:58;;;;;;;2.90;1.80;;;23.80;67.70;;;;;;4973637;28;20746;-83
2021/08/03 12:48:28;;;;;;;3.25;2.20;;;24.00;67.30;;;;;;4979898;28;20901;-83
2021/08/03 12:51:00;;;;;;;2.78;2.00;;;24.20;67.10;;;;;;4981581;28;20208;-84
2021/08/03 12:53:30;;;;;;;2.40;2.20;;;24.50;66.80;;;;;;4988115;28;20573;-83
2021/08/03 12:56:28;;;;;;;2.47;2.03;;;24.60;65.40;;;;;;4983013;28;20204;-82
2021/08/03 12:58:57;;;;;;;2.38;2.13;;;24.70;65.40;;;;;;4988398;28;20247;-86
2021/08/03 13:01:26;;;;;;;2.33;2.13;;;24.70;65.70;;;;;;4990823;28;21071;-84
2021/08/03 13:03:56;;;;;;;2.40;2.13;;;24.90;66.00;;;;;;4991068;28;20503;-83
2021/08/03 13:06:25;;;;;;;3.47;2.20;;;25.20;65.20;;;;;;4990483;28;20231;-82
2021/08/03 13:08:54;;;;;;;4.40;2.00;;;25.30;65.30;;;;;;4993484;28;20212;-85
2021/08/03 13:11:25;;;;;;;2.38;2.00;;;25.30;65.40;;;;;;4998569;28;20737;-85
2021/08/03 13:13:53;;;;;;;3.22;2.28;;;25.40;65.60;;;;;;4996886;28;20203;-86
2021/08/03 13:16:25;;;;;;;2.03;1.80;;;25.40;65.20;;;;;;5001628;28;20207;-84
2021/08/03 13:18:54;;;;;;;2.42;2.15;;;25.20;65.10;;;;;;5008024;28;20516;-87
2021/08/03 13:21:22;;;;;;;2.53;2.20;;;25.30;66.20;;;;;;4996729;28;20223;-84
2021/08/03 13:23:51;;;;;;;1.80;1.70;;;25.50;64.80;;;;;;5002818;28;20647;-84
2021/08/03 13:26:20;;;;;;;5.22;2.60;;;25.70;64.70;;;;;;4994378;28;20204;-85
2021/08/03 13:28:50;;;;;;;2.17;2.00;;;26.00;65.60;;;;;;4993358;28;20250;-83
2021/08/03 13:31:20;;;;;;;2.20;2.10;;;26.20;65.00;;;;;;4988794;28;20239;-84
2021/08/03 13:33:49;;;;;;;2.03;1.83;;;26.10;63.70;;;;;;4990193;28;20839;-84
2021/08/03 13:36:18;;;;;;;2.40;2.17;;;25.50;63.00;;;;;;4993522;28;20208;-85
2021/08/03 13:38:48;;;;;;;3.25;2.00;;;25.60;63.00;;;;;;4994972;28;20239;-83
2021/08/03 13:41:17;;;;;;;2.47;2.10;;;25.80;63.50;;;;;;4995170;28;21392;-83
2021/08/03 13:43:46;;;;;;;4.00;1.98;;;26.10;62.70;;;;;;4993102;28;20286;-84
2021/08/03 13:46:17;;;;;;;3.83;2.17;;;26.40;62.70;;;;;;4985601;28;20318;-83
2021/08/03 13:48:46;;;;;;;2.67;1.90;;;26.50;61.60;;;;;;4997777;28;20211;-84
2021/08/03 13:51:15;;;;;;;2.40;2.17;;;26.40;61.80;;;;;;4995424;28;20204;-84
2021/08/03 13:53:45;;;;;;;2.05;1.95;;;26.30;61.60;;;;;;4997269;28;20876;-83
2021/08/03 13:56:14;;;;;;;2.83;2.15;;;26.20;61.40;;;;;;4982065;28;20386;-83
2021/08/03 13:58:43;;;;;;;2.20;2.00;;;26.00;61.40;;;;;;4963827;28;20470;-84
2021/08/03 14:01:12;;;;;;;2.35;2.15;;;25.80;61.80;;;;;;4987723;28;20991;-84
2021/08/03 14:03:42;;;;;;;5.32;2.17;;;25.60;62.60;;;;;;4987022;28;20269;-86
2021/08/03 14:06:15;;;;;;;2.33;2.13;;;25.90;63.30;;;;;;4993486;28;20662;-83
2021/08/03 14:08:45;;;;;;;1.92;1.80;;;26.40;62.20;;;;;;4996032;28;20211;-83
2021/08/03 14:11:13;;;;;;;2.53;1.88;;;27.00;62.40;;;;;;4998073;28;20216;-83
2021/08/03 14:13:43;;;;;;;2.30;2.00;;;27.40;61.70;;;;;;5004830;28;20552;-85
2021/08/03 14:16:12;;;;;;;2.55;2.22;;;27.90;61.30;;;;;;5003064;28;20916;-82
2021/08/03 14:18:42;;;;;;;3.42;1.90;;;28.20;60.70;;;;;;5001678;28;20231;-85
2021/08/03 14:21:11;;;;;;;2.33;1.90;;;27.80;60.40;;;;;;4999082;28;20234;-82
2021/08/03 14:23:39;;;;;;;2.88;1.98;;;27.60;60.80;;;;;;5002413;28;20208;-84
2021/08/03 14:26:08;;;;;;;2.80;2.20;;;26.70;60.10;;;;;;5003276;28;20279;-86
2021/08/03 14:28:37;;;;;;;2.95;2.15;;;26.10;60.70;;;;;;4994492;28;20752;-82
2021/08/03 14:31:06;;;;;;;2.58;2.22;;;25.60;61.10;;;;;;4997719;28;20549;-82
2021/08/03 14:33:35;;;;;;;2.47;2.25;;;26.00;61.10;;;;;;4998537;28;20686;-85
2021/08/03 14:36:07;;;;;;;2.10;2.00;;;27.30;61.50;;;;;;4994913;28;20579;-83
2021/08/03 14:38:36;;;;;;;2.20;2.10;;;28.50;60.50;;;;;;4996512;28;20231;-84
2021/08/03 14:41:05;;;;;;;2.20;2.00;;;29.70;60.00;;;;;;4995158;28;20203;-85
2021/08/03 14:43:33;;;;;;;3.50;1.95;;;30.40;59.10;;;;;;5013032;28;20203;-81
2021/08/03 14:46:02;;;;;;;1.60;1.50;;;30.90;59.50;;;;;;5007834;28;20275;-83
2021/08/03 14:48:32;;;;;;;3.25;1.70;;;31.00;55.80;;;;;;5011071;28;20218;-85
2021/08/03 14:51:01;;;;;;;2.20;2.05;;;29.50;54.20;;;;;;5004815;28;21019;-84
2021/08/03 14:53:31;;;;;;;2.85;1.98;;;28.50;55.30;;;;;;5003822;28;20230;-84
2021/08/03 14:56:00;;;;;;;3.00;1.92;;;28.20;55.80;;;;;;5004304;28;20191;-83
2021/08/03 14:58:32;;;;;;;3.30;2.10;;;27.40;55.70;;;;;;5007149;28;20231;-83
2021/08/03 15:01:03;;;;;;;3.13;2.08;;;26.60;56.20;;;;;;4997045;28;20195;-85
2021/08/03 15:03:32;;;;;;;2.35;2.15;;;26.20;58.50;;;;;;4993724;28;21060;-84
2021/08/03 15:06:01;;;;;;;3.45;2.15;;;25.80;58.50;;;;;;4996744;28;20219;-82
2021/08/03 15:08:31;;;;;;;2.50;1.83;;;26.20;57.70;;;;;;4993957;28;20200;-85
2021/08/03 15:11:00;;;;;;;4.13;2.13;;;27.40;57.40;;;;;;4995578;28;20766;-85
2021/08/03 15:13:28;;;;;;;2.88;1.92;;;28.90;55.90;;;;;;4997506;28;20214;-82
2021/08/03 15:15:58;;;;;;;2.35;1.85;;;30.20;54.80;;;;;;4997813;28;20689;-85